sensor_id;sensor_type;location;lat;lon;timestamp;temperature;humidity
22623;DHT22;11478;51.094;7.030;2024-01-15T00:01:17;0.50;99.90
22623;DHT22;11478;51.094;7.030;2024-01-15T00:03:44;0.50;99.90
22623;DHT22;11478;51.094;7.030;2024-01-15T00:06:10;0.60;99.90
22623;DHT22;11478;51.094;7.030;2024-01-15T00:08:37;0.60;99.90
22623;DHT22;11478;51.094;7.030;2024-01-15T00:11:03;0.70;99.90
22623;DHT22;11478;51.094;7.030;2024-01-15T00:13:36;0.70;99.90
22623;DHT22;11478;51.094;7.030;2024-01-15T00:16:02;0.70;99.90
22623;DHT22;11478;51.094;7.030;2024-01-15T00:18:29;0.70;99.90
22623;DHT22;11478;51.094;7.030;2024-01-15T00:20:54;0.70;99.90
22623;DHT22;11478;51.094;7.030;2024-01-15T00:23:22;0.60;99.90
22623;DHT22;11478;51.094;7.030;2024-01-15T00:25:48;0.60;99.90
22623;DHT22;11478;51.094;7.030;2024-01-15T00:28:16;0.60;99.90
22623;DHT22;11478;51.094;7.030;2024-01-15T00:30:42;0.60;99.90
22623;DHT22;11478;51.094;7.030;2024-01-15T00:33:11;0.60;99.90
22623;DHT22;11478;51.094;7.030;2024-01-15T00:35:39;0.60;99.90
22623;DHT22;11478;51.094;7.030;2024-01-15T00:38:05;0.60;99.90
22623;DHT22;11478;51.094;7.030;2024-01-15T00:40:30;0.60;99.90
22623;DHT22;11478;51.094;7.030;2024-01-15T00:42:56;0.60;99.90
22623;DHT22;11478;51.094;7.030;2024-01-15T00:45:22;0.60;99.90
22623;DHT22;11478;51.094;7.030;2024-01-15T00:47:55;0.60;99.90
22623;DHT22;11478;51.094;7.030;2024-01-15T00:50:21;0.60;99.90
22623;DHT22;11478;51.094;7.030;2024-01-15T00:52:49;0.60;99.90
22623;DHT22;11478;51.094;7.030;2024-01-15T00:55:15;0.60;99.90
22623;DHT22;11478;51.094;7.030;2024-01-15T00:57:41;0.60;99.90
22623;DHT22;11478;51.094;7.030;2024-01-15T01:00:07;0.60;99.90
22623;DHT22;11478;51.094;7.030;2024-01-15T01:02:36;0.60;99.90
22623;DHT22;11478;51.094;7.030;2024-01-15T01:05:02;0.60;99.90
22623;DHT22;11478;51.094;7.030;2024-01-15T01:07:29;0.60;99.90
22623;DHT22;11478;51.094;7.030;2024-01-15T01:09:55;0.60;99.90
22623;DHT22;11478;51.094;7.030;2024-01-15T01:12:23;0.60;99.90
22623;DHT22;11478;51.094;7.030;2024-01-15T01:14:49;0.60;99.90
22623;DHT22;11478;51.094;7.030;2024-01-15T01:17:16;0.60;99.90
22623;DHT22;11478;51.094;7.030;2024-01-15T01:19:41;0.60;99.90
22623;DHT22;11478;51.094;7.030;2024-01-15T01:22:30;0.60;99.90
22623;DHT22;11478;51.094;7.030;2024-01-15T01:24:56;0.60;99.90
22623;DHT22;11478;51.094;7.030;2024-01-15T01:27:25;0.60;99.90
22623;DHT22;11478;51.094;7.030;2024-01-15T01:29:51;0.60;99.90
22623;DHT22;11478;51.094;7.030;2024-01-15T01:32:17;0.60;99.90
22623;DHT22;11478;51.094;7.030;2024-01-15T01:34:43;0.60;99.90
22623;DHT22;11478;51.094;7.030;2024-01-15T01:37:12;0.60;99.90
22623;DHT22;11478;51.094;7.030;2024-01-15T01:39:41;0.60;99.90
22623;DHT22;11478;51.094;7.030;2024-01-15T01:42:12;0.60;99.90
22623;DHT22;11478;51.094;7.030;2024-01-15T01:44:38;0.60;99.90
22623;DHT22;11478;51.094;7.030;2024-01-15T01:47:12;0.60;99.90
22623;DHT22;11478;51.094;7.030;2024-01-15T01:49:38;0.70;99.90
22623;DHT22;11478;51.094;7.030;2024-01-15T01:52:13;0.60;99.90
22623;DHT22;11478;51.094;7.030;2024-01-15T01:54:40;0.60;99.90
22623;DHT22;11478;51.094;7.030;2024-01-15T01:57:08;0.70;99.90
22623;DHT22;11478;51.094;7.030;2024-01-15T01:59:35;0.70;99.90
22623;DHT22;11478;51.094;7.030;2024-01-15T02:02:09;0.70;99.90
22623;DHT22;11478;51.094;7.030;2024-01-15T02:04:36;0.70;99.90
22623;DHT22;11478;51.094;7.030;2024-01-15T02:07:05;0.70;99.90
22623;DHT22;11478;51.094;7.030;2024-01-15T02:09:31;0.70;99.90
22623;DHT22;11478;51.094;7.030;2024-01-15T02:11:58;0.70;99.90
22623;DHT22;11478;51.094;7.030;2024-01-15T02:14:23;0.70;99.90
22623;DHT22;11478;51.094;7.030;2024-01-15T02:16:50;0.70;99.90
22623;DHT22;11478;51.094;7.030;2024-01-15T02:19:16;0.70;99.90
22623;DHT22;11478;51.094;7.030;2024-01-15T02:21:50;0.70;99.90
22623;DHT22;11478;51.094;7.030;2024-01-15T02:24:15;0.80;99.90
22623;DHT22;11478;51.094;7.030;2024-01-15T02:26:43;0.80;99.90
22623;DHT22;11478;51.094;7.030;2024-01-15T02:29:09;0.80;99.90
22623;DHT22;11478;51.094;7.030;2024-01-15T02:31:37;0.80;99.90
22623;DHT22;11478;51.094;7.030;2024-01-15T02:34:02;0.80;99.90
22623;DHT22;11478;51.094;7.030;2024-01-15T02:36:30;0.80;99.90
22623;DHT22;11478;51.094;7.030;2024-01-15T02:38:55;0.90;99.90
22623;DHT22;11478;51.094;7.030;2024-01-15T02:41:21;0.80;99.90
22623;DHT22;11478;51.094;7.030;2024-01-15T02:43:47;0.90;99.90
22623;DHT22;11478;51.094;7.030;2024-01-15T02:46:21;0.90;99.90
22623;DHT22;11478;51.094;7.030;2024-01-15T02:48:47;0.90;99.90
22623;DHT22;11478;51.094;7.030;2024-01-15T02:51:13;0.90;99.90
22623;DHT22;11478;51.094;7.030;2024-01-15T02:53:39;0.80;99.90
22623;DHT22;11478;51.094;7.030;2024-01-15T02:56:19;0.80;99.90
22623;DHT22;11478;51.094;7.030;2024-01-15T02:58:52;0.80;99.90
22623;DHT22;11478;51.094;7.030;2024-01-15T03:01:21;0.80;99.90
22623;DHT22;11478;51.094;7.030;2024-01-15T03:03:50;0.80;99.90
22623;DHT22;11478;51.094;7.030;2024-01-15T03:06:16;0.80;99.90
22623;DHT22;11478;51.094;7.030;2024-01-15T03:08:44;0.80;99.90
22623;DHT22;11478;51.094;7.030;2024-01-15T03:11:10;0.80;99.90
22623;DHT22;11478;51.094;7.030;2024-01-15T03:13:50;0.80;99.90
22623;DHT22;11478;51.094;7.030;2024-01-15T03:16:16;0.90;99.90
22623;DHT22;11478;51.094;7.030;2024-01-15T03:18:43;0.90;99.90
22623;DHT22;11478;51.094;7.030;2024-01-15T03:21:09;0.90;99.90
22623;DHT22;11478;51.094;7.030;2024-01-15T03:23:45;0.90;99.90
22623;DHT22;11478;51.094;7.030;2024-01-15T03:26:11;0.90;99.90
22623;DHT22;11478;51.094;7.030;2024-01-15T03:28:40;0.90;99.90
22623;DHT22;11478;51.094;7.030;2024-01-15T03:31:05;0.90;99.90
22623;DHT22;11478;51.094;7.030;2024-01-15T03:33:34;0.90;99.90
22623;DHT22;11478;51.094;7.030;2024-01-15T03:35:59;0.90;99.90
22623;DHT22;11478;51.094;7.030;2024-01-15T03:38:28;0.90;99.90
22623;DHT22;11478;51.094;7.030;2024-01-15T03:40:54;0.90;99.90
22623;DHT22;11478;51.094;7.030;2024-01-15T03:43:21;0.90;99.90
22623;DHT22;11478;51.094;7.030;2024-01-15T03:45:47;0.90;99.90
22623;DHT22;11478;51.094;7.030;2024-01-15T03:48:22;0.90;99.90
22623;DHT22;11478;51.094;7.030;2024-01-15T03:50:51;1.00;99.90
22623;DHT22;11478;51.094;7.030;2024-01-15T03:53:24;1.00;99.90
22623;DHT22;11478;51.094;7.030;2024-01-15T03:55:50;1.00;99.90
22623;DHT22;11478;51.094;7.030;2024-01-15T03:58:16;0.90;99.90
22623;DHT22;11478;51.094;7.030;2024-01-15T04:00:42;1.00;99.90
22623;DHT22;11478;51.094;7.030;2024-01-15T04:03:12;1.00;99.90
22623;DHT22;11478;51.094;7.030;2024-01-15T04:05:38;1.00;99.90
22623;DHT22;11478;51.094;7.030;2024-01-15T04:08:05;0.90;99.90
22623;DHT22;11478;51.094;7.030;2024-01-15T04:10:31;0.90;99.90
22623;DHT22;11478;51.094;7.030;2024-01-15T04:12:58;1.00;99.90
22623;DHT22;11478;51.094;7.030;2024-01-15T04:15:25;0.90;99.90
22623;DHT22;11478;51.094;7.030;2024-01-15T04:17:53;1.00;99.90
22623;DHT22;11478;51.094;7.030;2024-01-15T04:20:19;0.90;99.90
22623;DHT22;11478;51.094;7.030;2024-01-15T04:22:53;0.90;99.90
22623;DHT22;11478;51.094;7.030;2024-01-15T04:25:19;0.90;99.90
22623;DHT22;11478;51.094;7.030;2024-01-15T04:27:54;1.00;99.90
22623;DHT22;11478;51.094;7.030;2024-01-15T04:30:20;0.90;99.90
22623;DHT22;11478;51.094;7.030;2024-01-15T04:32:47;0.90;99.90
22623;DHT22;11478;51.094;7.030;2024-01-15T04:35:12;0.90;99.90
22623;DHT22;11478;51.094;7.030;2024-01-15T04:37:46;0.90;99.90
22623;DHT22;11478;51.094;7.030;2024-01-15T04:40:12;0.90;99.90
22623;DHT22;11478;51.094;7.030;2024-01-15T04:42:50;0.90;99.90
22623;DHT22;11478;51.094;7.030;2024-01-15T04:45:16;0.90;99.90
22623;DHT22;11478;51.094;7.030;2024-01-15T04:47:53;0.90;99.90
22623;DHT22;11478;51.094;7.030;2024-01-15T04:50:19;0.90;99.90
22623;DHT22;11478;51.094;7.030;2024-01-15T04:52:55;0.90;99.90
22623;DHT22;11478;51.094;7.030;2024-01-15T04:55:21;0.90;99.90
22623;DHT22;11478;51.094;7.030;2024-01-15T04:57:46;0.90;99.90
22623;DHT22;11478;51.094;7.030;2024-01-15T05:00:12;0.90;99.90
22623;DHT22;11478;51.094;7.030;2024-01-15T05:02:55;0.90;99.90
22623;DHT22;11478;51.094;7.030;2024-01-15T05:05:21;0.90;99.90
22623;DHT22;11478;51.094;7.030;2024-01-15T05:07:47;0.90;99.90
22623;DHT22;11478;51.094;7.030;2024-01-15T05:10:13;1.00;99.90
22623;DHT22;11478;51.094;7.030;2024-01-15T05:12:39;1.00;99.90
22623;DHT22;11478;51.094;7.030;2024-01-15T05:15:05;1.00;99.90
22623;DHT22;11478;51.094;7.030;2024-01-15T05:17:32;1.00;99.90
22623;DHT22;11478;51.094;7.030;2024-01-15T05:19:58;0.90;99.90
22623;DHT22;11478;51.094;7.030;2024-01-15T05:22:27;1.00;99.90
22623;DHT22;11478;51.094;7.030;2024-01-15T05:24:53;1.00;99.90
22623;DHT22;11478;51.094;7.030;2024-01-15T05:27:47;1.00;99.90
22623;DHT22;11478;51.094;7.030;2024-01-15T05:30:13;1.00;99.90
22623;DHT22;11478;51.094;7.030;2024-01-15T05:32:40;1.00;99.90
22623;DHT22;11478;51.094;7.030;2024-01-15T05:35:06;1.00;99.90
22623;DHT22;11478;51.094;7.030;2024-01-15T05:37:32;1.00;99.90
22623;DHT22;11478;51.094;7.030;2024-01-15T05:39:58;1.00;99.90
22623;DHT22;11478;51.094;7.030;2024-01-15T05:42:25;1.00;99.90
22623;DHT22;11478;51.094;7.030;2024-01-15T05:44:52;1.00;99.90
22623;DHT22;11478;51.094;7.030;2024-01-15T05:47:33;1.00;99.90
22623;DHT22;11478;51.094;7.030;2024-01-15T05:50:00;1.00;99.90
22623;DHT22;11478;51.094;7.030;2024-01-15T05:52:27;1.00;99.90
22623;DHT22;11478;51.094;7.030;2024-01-15T05:54:53;1.00;99.90
22623;DHT22;11478;51.094;7.030;2024-01-15T05:57:25;1.00;99.90
22623;DHT22;11478;51.094;7.030;2024-01-15T05:59:51;1.00;99.90
22623;DHT22;11478;51.094;7.030;2024-01-15T06:02:19;1.00;99.90
22623;DHT22;11478;51.094;7.030;2024-01-15T06:04:45;1.00;99.90
22623;DHT22;11478;51.094;7.030;2024-01-15T06:07:12;1.00;99.90
22623;DHT22;11478;51.094;7.030;2024-01-15T06:09:38;1.00;99.90
22623;DHT22;11478;51.094;7.030;2024-01-15T06:12:07;1.00;99.90
22623;DHT22;11478;51.094;7.030;2024-01-15T06:14:33;1.00;99.90
22623;DHT22;11478;51.094;7.030;2024-01-15T06:17:01;1.00;99.90
22623;DHT22;11478;51.094;7.030;2024-01-15T06:19:26;1.00;99.90
22623;DHT22;11478;51.094;7.030;2024-01-15T06:21:53;1.00;99.90
22623;DHT22;11478;51.094;7.030;2024-01-15T06:24:19;1.00;99.90
22623;DHT22;11478;51.094;7.030;2024-01-15T06:26:55;1.00;99.90
22623;DHT22;11478;51.094;7.030;2024-01-15T06:29:21;1.00;99.90
22623;DHT22;11478;51.094;7.030;2024-01-15T06:31:50;1.10;99.90
22623;DHT22;11478;51.094;7.030;2024-01-15T06:34:16;1.00;99.90
22623;DHT22;11478;51.094;7.030;2024-01-15T06:36:42;1.10;99.90
22623;DHT22;11478;51.094;7.030;2024-01-15T06:39:08;1.10;99.90
22623;DHT22;11478;51.094;7.030;2024-01-15T06:41:36;1.10;99.90
22623;DHT22;11478;51.094;7.030;2024-01-15T06:44:12;1.10;99.90
22623;DHT22;11478;51.094;7.030;2024-01-15T06:46:47;1.10;99.90
22623;DHT22;11478;51.094;7.030;2024-01-15T06:49:13;1.10;99.90
22623;DHT22;11478;51.094;7.030;2024-01-15T06:51:42;1.10;99.90
22623;DHT22;11478;51.094;7.030;2024-01-15T06:54:08;1.10;99.90
22623;DHT22;11478;51.094;7.030;2024-01-15T06:56:46;1.10;99.90
22623;DHT22;11478;51.094;7.030;2024-01-15T06:59:14;1.10;99.90
22623;DHT22;11478;51.094;7.030;2024-01-15T07:01:39;1.10;99.90
22623;DHT22;11478;51.094;7.030;2024-01-15T07:04:07;1.10;99.90
22623;DHT22;11478;51.094;7.030;2024-01-15T07:06:33;1.10;99.90
22623;DHT22;11478;51.094;7.030;2024-01-15T07:09:11;1.10;99.90
22623;DHT22;11478;51.094;7.030;2024-01-15T07:11:43;1.10;99.90
22623;DHT22;11478;51.094;7.030;2024-01-15T07:14:16;1.10;99.90
22623;DHT22;11478;51.094;7.030;2024-01-15T07:16:43;1.10;99.90
22623;DHT22;11478;51.094;7.030;2024-01-15T07:19:12;1.10;99.90
22623;DHT22;11478;51.094;7.030;2024-01-15T07:21:42;1.10;99.90
22623;DHT22;11478;51.094;7.030;2024-01-15T07:24:09;1.10;99.90
22623;DHT22;11478;51.094;7.030;2024-01-15T07:26:41;1.10;99.90
22623;DHT22;11478;51.094;7.030;2024-01-15T07:29:18;1.10;99.90
22623;DHT22;11478;51.094;7.030;2024-01-15T07:32:07;1.10;99.90
22623;DHT22;11478;51.094;7.030;2024-01-15T07:34:33;1.10;99.90
22623;DHT22;11478;51.094;7.030;2024-01-15T07:37:01;1.10;99.90
22623;DHT22;11478;51.094;7.030;2024-01-15T07:39:27;1.10;99.90
22623;DHT22;11478;51.094;7.030;2024-01-15T07:41:54;1.10;99.90
22623;DHT22;11478;51.094;7.030;2024-01-15T07:44:20;1.10;99.90
22623;DHT22;11478;51.094;7.030;2024-01-15T07:46:47;1.00;99.90
22623;DHT22;11478;51.094;7.030;2024-01-15T07:49:13;1.00;99.90
22623;DHT22;11478;51.094;7.030;2024-01-15T07:51:42;1.10;99.90
22623;DHT22;11478;51.094;7.030;2024-01-15T07:54:09;1.10;99.90
22623;DHT22;11478;51.094;7.030;2024-01-15T07:57:10;1.10;99.90
22623;DHT22;11478;51.094;7.030;2024-01-15T07:59:36;1.10;99.90
22623;DHT22;11478;51.094;7.030;2024-01-15T08:02:02;1.10;99.90
22623;DHT22;11478;51.094;7.030;2024-01-15T08:04:28;1.10;99.90
22623;DHT22;11478;51.094;7.030;2024-01-15T08:06:56;1.10;99.90
22623;DHT22;11478;51.094;7.030;2024-01-15T08:09:22;1.10;99.90
22623;DHT22;11478;51.094;7.030;2024-01-15T08:11:50;1.10;99.90
22623;DHT22;11478;51.094;7.030;2024-01-15T08:14:18;1.10;99.90
22623;DHT22;11478;51.094;7.030;2024-01-15T08:16:44;1.10;99.90
22623;DHT22;11478;51.094;7.030;2024-01-15T08:19:33;1.10;99.90
22623;DHT22;11478;51.094;7.030;2024-01-15T08:22:14;1.00;99.90
22623;DHT22;11478;51.094;7.030;2024-01-15T08:24:44;1.00;99.90
22623;DHT22;11478;51.094;7.030;2024-01-15T08:27:13;1.00;99.90
22623;DHT22;11478;51.094;7.030;2024-01-15T08:29:47;1.00;99.90
22623;DHT22;11478;51.094;7.030;2024-01-15T08:32:16;1.00;99.90
22623;DHT22;11478;51.094;7.030;2024-01-15T08:34:43;1.10;99.90
22623;DHT22;11478;51.094;7.030;2024-01-15T08:37:09;1.10;99.90
22623;DHT22;11478;51.094;7.030;2024-01-15T08:39:35;1.10;99.90
22623;DHT22;11478;51.094;7.030;2024-01-15T08:42:05;1.00;99.90
22623;DHT22;11478;51.094;7.030;2024-01-15T08:44:30;1.10;99.90
22623;DHT22;11478;51.094;7.030;2024-01-15T08:46:56;1.10;99.90
22623;DHT22;11478;51.094;7.030;2024-01-15T08:49:26;1.10;99.90
22623;DHT22;11478;51.094;7.030;2024-01-15T08:51:52;1.10;99.90
22623;DHT22;11478;51.094;7.030;2024-01-15T08:54:19;1.10;99.90
22623;DHT22;11478;51.094;7.030;2024-01-15T08:56:46;1.00;99.90
22623;DHT22;11478;51.094;7.030;2024-01-15T08:59:12;1.00;99.90
22623;DHT22;11478;51.094;7.030;2024-01-15T09:01:43;1.00;99.90
22623;DHT22;11478;51.094;7.030;2024-01-15T09:04:09;1.00;99.90
22623;DHT22;11478;51.094;7.030;2024-01-15T09:06:38;0.90;99.90
22623;DHT22;11478;51.094;7.030;2024-01-15T09:09:03;0.90;99.90
22623;DHT22;11478;51.094;7.030;2024-01-15T09:11:33;0.90;99.90
22623;DHT22;11478;51.094;7.030;2024-01-15T09:13:59;0.80;99.90
22623;DHT22;11478;51.094;7.030;2024-01-15T09:16:26;0.80;99.90
22623;DHT22;11478;51.094;7.030;2024-01-15T09:18:52;0.80;99.90
22623;DHT22;11478;51.094;7.030;2024-01-15T09:21:20;0.70;99.90
22623;DHT22;11478;51.094;7.030;2024-01-15T09:23:45;0.70;99.90
22623;DHT22;11478;51.094;7.030;2024-01-15T09:26:11;0.70;99.90
22623;DHT22;11478;51.094;7.030;2024-01-15T09:28:37;0.70;99.90
22623;DHT22;11478;51.094;7.030;2024-01-15T09:31:03;0.70;99.90
22623;DHT22;11478;51.094;7.030;2024-01-15T09:33:29;0.70;99.90
22623;DHT22;11478;51.094;7.030;2024-01-15T09:36:03;0.70;99.90
22623;DHT22;11478;51.094;7.030;2024-01-15T09:38:30;0.70;99.90
22623;DHT22;11478;51.094;7.030;2024-01-15T09:40:58;0.70;99.90
22623;DHT22;11478;51.094;7.030;2024-01-15T09:43:25;0.70;99.90
22623;DHT22;11478;51.094;7.030;2024-01-15T09:45:52;0.70;99.90
22623;DHT22;11478;51.094;7.030;2024-01-15T09:48:19;0.70;99.90
22623;DHT22;11478;51.094;7.030;2024-01-15T09:50:52;0.70;99.90
22623;DHT22;11478;51.094;7.030;2024-01-15T09:53:18;0.80;99.90
22623;DHT22;11478;51.094;7.030;2024-01-15T09:55:46;0.80;99.90
22623;DHT22;11478;51.094;7.030;2024-01-15T09:58:14;0.80;99.90
22623;DHT22;11478;51.094;7.030;2024-01-15T10:00:40;0.80;99.90
22623;DHT22;11478;51.094;7.030;2024-01-15T10:03:09;0.80;99.90
22623;DHT22;11478;51.094;7.030;2024-01-15T10:05:37;0.80;99.90
22623;DHT22;11478;51.094;7.030;2024-01-15T10:08:11;0.80;99.90
22623;DHT22;11478;51.094;7.030;2024-01-15T10:10:37;0.80;99.90
22623;DHT22;11478;51.094;7.030;2024-01-15T10:13:04;0.80;99.90
22623;DHT22;11478;51.094;7.030;2024-01-15T10:15:35;0.80;99.90
22623;DHT22;11478;51.094;7.030;2024-01-15T10:18:10;0.80;99.90
22623;DHT22;11478;51.094;7.030;2024-01-15T10:20:36;0.80;99.90
22623;DHT22;11478;51.094;7.030;2024-01-15T10:23:03;0.80;99.90
22623;DHT22;11478;51.094;7.030;2024-01-15T10:25:30;0.80;99.90
22623;DHT22;11478;51.094;7.030;2024-01-15T10:28:04;0.80;99.90
22623;DHT22;11478;51.094;7.030;2024-01-15T10:30:31;0.80;99.90
22623;DHT22;11478;51.094;7.030;2024-01-15T10:32:59;0.90;99.90
22623;DHT22;11478;51.094;7.030;2024-01-15T10:35:33;0.90;99.90
22623;DHT22;11478;51.094;7.030;2024-01-15T10:38:00;0.90;99.90
22623;DHT22;11478;51.094;7.030;2024-01-15T10:40:26;0.90;99.90
22623;DHT22;11478;51.094;7.030;2024-01-15T10:43:03;0.90;99.90
22623;DHT22;11478;51.094;7.030;2024-01-15T10:45:29;0.90;99.90
22623;DHT22;11478;51.094;7.030;2024-01-15T10:47:57;0.90;99.90
22623;DHT22;11478;51.094;7.030;2024-01-15T10:50:24;0.90;99.90
22623;DHT22;11478;51.094;7.030;2024-01-15T10:52:52;0.90;99.90
22623;DHT22;11478;51.094;7.030;2024-01-15T10:55:18;0.80;99.90
22623;DHT22;11478;51.094;7.030;2024-01-15T10:57:45;0.80;99.90
22623;DHT22;11478;51.094;7.030;2024-01-15T11:00:13;0.80;99.90
22623;DHT22;11478;51.094;7.030;2024-01-15T11:02:40;0.80;99.90
22623;DHT22;11478;51.094;7.030;2024-01-15T11:05:14;0.90;99.90
22623;DHT22;11478;51.094;7.030;2024-01-15T11:07:57;0.90;99.90
22623;DHT22;11478;51.094;7.030;2024-01-15T11:10:53;0.90;99.90
22623;DHT22;11478;51.094;7.030;2024-01-15T11:13:43;0.90;99.90
22623;DHT22;11478;51.094;7.030;2024-01-15T11:16:24;0.90;99.90
22623;DHT22;11478;51.094;7.030;2024-01-15T11:19:13;0.90;99.90
22623;DHT22;11478;51.094;7.030;2024-01-15T11:21:42;0.90;99.90
22623;DHT22;11478;51.094;7.030;2024-01-15T11:24:08;1.00;99.90
22623;DHT22;11478;51.094;7.030;2024-01-15T11:26:44;1.00;99.90
22623;DHT22;11478;51.094;7.030;2024-01-15T11:32:13;1.10;99.90
22623;DHT22;11478;51.094;7.030;2024-01-15T11:35:01;1.10;99.90
22623;DHT22;11478;51.094;7.030;2024-01-15T11:37:58;1.20;99.90
22623;DHT22;11478;51.094;7.030;2024-01-15T11:43:25;1.10;99.90
22623;DHT22;11478;51.094;7.030;2024-01-15T11:45:54;1.10;99.90
22623;DHT22;11478;51.094;7.030;2024-01-15T11:48:23;1.20;99.90
22623;DHT22;11478;51.094;7.030;2024-01-15T11:51:11;1.20;99.90
22623;DHT22;11478;51.094;7.030;2024-01-15T11:53:47;1.20;99.90
22623;DHT22;11478;51.094;7.030;2024-01-15T11:56:20;1.20;99.90
22623;DHT22;11478;51.094;7.030;2024-01-15T11:58:51;1.30;99.90
22623;DHT22;11478;51.094;7.030;2024-01-15T12:01:19;1.30;99.90
22623;DHT22;11478;51.094;7.030;2024-01-15T12:03:58;1.30;99.90
22623;DHT22;11478;51.094;7.030;2024-01-15T12:06:24;1.30;99.90
22623;DHT22;11478;51.094;7.030;2024-01-15T12:09:06;1.40;99.90
22623;DHT22;11478;51.094;7.030;2024-01-15T12:11:35;1.40;99.90
22623;DHT22;11478;51.094;7.030;2024-01-15T12:14:16;1.40;99.90
22623;DHT22;11478;51.094;7.030;2024-01-15T12:17:01;1.40;99.90
22623;DHT22;11478;51.094;7.030;2024-01-15T12:19:27;1.50;99.90
22623;DHT22;11478;51.094;7.030;2024-01-15T12:22:01;1.50;99.90
22623;DHT22;11478;51.094;7.030;2024-01-15T12:24:36;1.50;99.90
22623;DHT22;11478;51.094;7.030;2024-01-15T12:27:08;1.50;99.90
22623;DHT22;11478;51.094;7.030;2024-01-15T12:29:34;1.60;99.90
22623;DHT22;11478;51.094;7.030;2024-01-15T12:32:05;1.50;99.90
22623;DHT22;11478;51.094;7.030;2024-01-15T12:34:31;1.50;99.90
22623;DHT22;11478;51.094;7.030;2024-01-15T12:37:00;1.50;99.90
22623;DHT22;11478;51.094;7.030;2024-01-15T12:39:26;1.50;99.90
22623;DHT22;11478;51.094;7.030;2024-01-15T12:41:55;1.50;99.90
22623;DHT22;11478;51.094;7.030;2024-01-15T12:44:21;1.40;99.90
22623;DHT22;11478;51.094;7.030;2024-01-15T12:47:06;1.40;99.90
22623;DHT22;11478;51.094;7.030;2024-01-15T12:49:32;1.40;99.90
22623;DHT22;11478;51.094;7.030;2024-01-15T12:52:01;1.40;99.90
22623;DHT22;11478;51.094;7.030;2024-01-15T12:54:27;1.30;99.90
22623;DHT22;11478;51.094;7.030;2024-01-15T12:56:56;1.30;99.90
22623;DHT22;11478;51.094;7.030;2024-01-15T12:59:22;1.40;99.90
22623;DHT22;11478;51.094;7.030;2024-01-15T13:01:48;1.30;99.90
22623;DHT22;11478;51.094;7.030;2024-01-15T13:04:33;1.30;99.90
22623;DHT22;11478;51.094;7.030;2024-01-15T13:06:59;1.40;99.90
22623;DHT22;11478;51.094;7.030;2024-01-15T13:09:26;1.40;99.90
22623;DHT22;11478;51.094;7.030;2024-01-15T13:11:52;1.40;99.90
22623;DHT22;11478;51.094;7.030;2024-01-15T13:14:18;1.40;99.90
22623;DHT22;11478;51.094;7.030;2024-01-15T13:16:44;1.40;99.90
22623;DHT22;11478;51.094;7.030;2024-01-15T13:19:10;1.40;99.90
22623;DHT22;11478;51.094;7.030;2024-01-15T13:21:41;1.40;99.90
22623;DHT22;11478;51.094;7.030;2024-01-15T13:24:12;1.40;99.90
22623;DHT22;11478;51.094;7.030;2024-01-15T13:26:44;1.40;99.90
22623;DHT22;11478;51.094;7.030;2024-01-15T13:29:10;1.40;99.90
22623;DHT22;11478;51.094;7.030;2024-01-15T13:31:36;1.40;99.90
22623;DHT22;11478;51.094;7.030;2024-01-15T13:34:02;1.40;99.90
22623;DHT22;11478;51.094;7.030;2024-01-15T13:36:31;1.40;99.90
22623;DHT22;11478;51.094;7.030;2024-01-15T13:39:01;1.40;99.90
22623;DHT22;11478;51.094;7.030;2024-01-15T13:41:27;1.40;99.90
22623;DHT22;11478;51.094;7.030;2024-01-15T13:43:54;1.40;99.90
22623;DHT22;11478;51.094;7.030;2024-01-15T13:46:25;1.30;99.90
22623;DHT22;11478;51.094;7.030;2024-01-15T13:48:55;1.30;99.90
22623;DHT22;11478;51.094;7.030;2024-01-15T13:51:24;1.30;99.90
22623;DHT22;11478;51.094;7.030;2024-01-15T13:53:53;1.30;99.90
22623;DHT22;11478;51.094;7.030;2024-01-15T13:56:26;1.30;99.90
22623;DHT22;11478;51.094;7.030;2024-01-15T13:58:58;1.30;99.90
22623;DHT22;11478;51.094;7.030;2024-01-15T14:01:25;1.30;99.90
22623;DHT22;11478;51.094;7.030;2024-01-15T14:04:00;1.30;99.90
22623;DHT22;11478;51.094;7.030;2024-01-15T14:06:26;1.30;99.90
22623;DHT22;11478;51.094;7.030;2024-01-15T14:08:54;1.30;99.90
22623;DHT22;11478;51.094;7.030;2024-01-15T14:11:20;1.30;99.90
22623;DHT22;11478;51.094;7.030;2024-01-15T14:13:46;1.30;99.90
22623;DHT22;11478;51.094;7.030;2024-01-15T14:16:13;1.30;99.90
22623;DHT22;11478;51.094;7.030;2024-01-15T14:18:45;1.30;99.90
22623;DHT22;11478;51.094;7.030;2024-01-15T14:21:11;1.20;99.90
22623;DHT22;11478;51.094;7.030;2024-01-15T14:23:40;1.20;99.90
22623;DHT22;11478;51.094;7.030;2024-01-15T14:26:06;1.20;99.90
22623;DHT22;11478;51.094;7.030;2024-01-15T14:28:47;1.20;99.90
22623;DHT22;11478;51.094;7.030;2024-01-15T14:31:21;1.20;99.90
22623;DHT22;11478;51.094;7.030;2024-01-15T14:33:59;1.20;99.90
22623;DHT22;11478;51.094;7.030;2024-01-15T14:36:30;1.20;99.90
22623;DHT22;11478;51.094;7.030;2024-01-15T14:38:56;1.20;99.90
22623;DHT22;11478;51.094;7.030;2024-01-15T14:41:33;1.20;99.90
22623;DHT22;11478;51.094;7.030;2024-01-15T14:44:02;1.20;99.90
22623;DHT22;11478;51.094;7.030;2024-01-15T14:46:33;1.20;99.90
22623;DHT22;11478;51.094;7.030;2024-01-15T14:49:08;1.30;99.90
22623;DHT22;11478;51.094;7.030;2024-01-15T14:51:40;1.30;99.90
22623;DHT22;11478;51.094;7.030;2024-01-15T14:54:11;1.30;99.90
22623;DHT22;11478;51.094;7.030;2024-01-15T14:56:37;1.30;99.90
22623;DHT22;11478;51.094;7.030;2024-01-15T14:59:07;1.30;99.90
22623;DHT22;11478;51.094;7.030;2024-01-15T15:05:06;1.30;99.90
22623;DHT22;11478;51.094;7.030;2024-01-15T15:07:32;1.20;99.90
22623;DHT22;11478;51.094;7.030;2024-01-15T15:10:10;1.20;99.90
22623;DHT22;11478;51.094;7.030;2024-01-15T15:12:37;1.20;99.90
22623;DHT22;11478;51.094;7.030;2024-01-15T15:15:15;1.20;99.90
22623;DHT22;11478;51.094;7.030;2024-01-15T15:17:46;1.20;99.90
22623;DHT22;11478;51.094;7.030;2024-01-15T15:20:18;1.20;99.90
22623;DHT22;11478;51.094;7.030;2024-01-15T15:22:44;1.20;99.90
22623;DHT22;11478;51.094;7.030;2024-01-15T15:25:14;1.20;99.90
22623;DHT22;11478;51.094;7.030;2024-01-15T15:27:40;1.10;99.90
22623;DHT22;11478;51.094;7.030;2024-01-15T15:30:18;1.20;99.90
22623;DHT22;11478;51.094;7.030;2024-01-15T15:32:56;1.10;99.90
22623;DHT22;11478;51.094;7.030;2024-01-15T15:35:24;1.10;99.90
22623;DHT22;11478;51.094;7.030;2024-01-15T15:37:57;1.10;99.90
22623;DHT22;11478;51.094;7.030;2024-01-15T15:40:30;1.10;99.90
22623;DHT22;11478;51.094;7.030;2024-01-15T15:43:00;1.10;99.90
22623;DHT22;11478;51.094;7.030;2024-01-15T15:45:32;1.10;99.90
22623;DHT22;11478;51.094;7.030;2024-01-15T15:48:08;1.10;99.90
22623;DHT22;11478;51.094;7.030;2024-01-15T15:50:37;1.10;99.90
22623;DHT22;11478;51.094;7.030;2024-01-15T15:53:04;1.10;99.90
22623;DHT22;11478;51.094;7.030;2024-01-15T15:55:30;1.10;99.90
22623;DHT22;11478;51.094;7.030;2024-01-15T15:57:57;1.00;99.90
22623;DHT22;11478;51.094;7.030;2024-01-15T16:00:26;1.00;99.90
22623;DHT22;11478;51.094;7.030;2024-01-15T16:02:56;1.00;99.90
22623;DHT22;11478;51.094;7.030;2024-01-15T16:05:31;0.90;99.90
22623;DHT22;11478;51.094;7.030;2024-01-15T16:07:57;0.90;99.90